sensor_id;sensor_type;location;lat;lon;timestamp;temperature;humidity
57566;DHT22;43401;43.788;-0.712;2022-08-19T00:01:50;20.40;99.90
57566;DHT22;43401;43.788;-0.712;2022-08-19T00:04:17;20.30;99.90
57566;DHT22;43401;43.788;-0.712;2022-08-19T00:06:43;20.30;99.90
57566;DHT22;43401;43.788;-0.712;2022-08-19T00:09:11;20.30;99.90
57566;DHT22;43401;43.788;-0.712;2022-08-19T00:11:37;20.30;99.90
57566;DHT22;43401;43.788;-0.712;2022-08-19T00:14:08;20.20;99.90
57566;DHT22;43401;43.788;-0.712;2022-08-19T00:16:35;20.10;99.90
57566;DHT22;43401;43.788;-0.712;2022-08-19T00:19:00;20.20;99.90
57566;DHT22;43401;43.788;-0.712;2022-08-19T00:21:26;20.20;99.90
57566;DHT22;43401;43.788;-0.712;2022-08-19T00:23:52;20.00;99.90
57566;DHT22;43401;43.788;-0.712;2022-08-19T00:26:18;20.10;99.90
57566;DHT22;43401;43.788;-0.712;2022-08-19T00:28:43;20.00;99.90
57566;DHT22;43401;43.788;-0.712;2022-08-19T00:31:09;20.10;99.90
57566;DHT22;43401;43.788;-0.712;2022-08-19T00:33:35;20.00;99.90
57566;DHT22;43401;43.788;-0.712;2022-08-19T00:36:01;20.10;99.90
57566;DHT22;43401;43.788;-0.712;2022-08-19T00:38:27;20.10;99.90
57566;DHT22;43401;43.788;-0.712;2022-08-19T00:40:53;20.20;99.90
57566;DHT22;43401;43.788;-0.712;2022-08-19T00:43:19;20.20;99.90
57566;DHT22;43401;43.788;-0.712;2022-08-19T00:45:46;20.20;99.90
57566;DHT22;43401;43.788;-0.712;2022-08-19T00:48:13;20.10;99.90
57566;DHT22;43401;43.788;-0.712;2022-08-19T00:50:39;20.20;99.90
57566;DHT22;43401;43.788;-0.712;2022-08-19T00:53:08;20.10;99.90
57566;DHT22;43401;43.788;-0.712;2022-08-19T00:55:34;20.10;99.90
57566;DHT22;43401;43.788;-0.712;2022-08-19T00:58:02;20.00;99.90
57566;DHT22;43401;43.788;-0.712;2022-08-19T01:00:29;20.10;99.90
57566;DHT22;43401;43.788;-0.712;2022-08-19T01:02:55;20.10;99.90
57566;DHT22;43401;43.788;-0.712;2022-08-19T01:05:22;20.10;99.90
57566;DHT22;43401;43.788;-0.712;2022-08-19T01:07:48;20.20;99.90
57566;DHT22;43401;43.788;-0.712;2022-08-19T01:10:16;20.10;99.90
57566;DHT22;43401;43.788;-0.712;2022-08-19T01:12:44;20.20;99.90
57566;DHT22;43401;43.788;-0.712;2022-08-19T01:15:12;20.10;99.90
57566;DHT22;43401;43.788;-0.712;2022-08-19T01:17:39;20.10;99.90
57566;DHT22;43401;43.788;-0.712;2022-08-19T01:20:05;20.00;99.90
57566;DHT22;43401;43.788;-0.712;2022-08-19T01:25:07;20.00;99.90
57566;DHT22;43401;43.788;-0.712;2022-08-19T01:27:36;20.00;99.90
57566;DHT22;43401;43.788;-0.712;2022-08-19T01:30:03;19.90;99.90
57566;DHT22;43401;43.788;-0.712;2022-08-19T01:32:28;19.90;99.90
57566;DHT22;43401;43.788;-0.712;2022-08-19T01:34:55;19.90;99.90
57566;DHT22;43401;43.788;-0.712;2022-08-19T01:37:21;19.90;99.90
57566;DHT22;43401;43.788;-0.712;2022-08-19T01:39:46;19.70;99.90
57566;DHT22;43401;43.788;-0.712;2022-08-19T01:42:12;19.70;99.90
57566;DHT22;43401;43.788;-0.712;2022-08-19T01:44:39;19.70;99.90
57566;DHT22;43401;43.788;-0.712;2022-08-19T01:47:06;19.60;99.90
57566;DHT22;43401;43.788;-0.712;2022-08-19T01:49:32;19.60;99.90
57566;DHT22;43401;43.788;-0.712;2022-08-19T01:51:59;19.60;99.90
57566;DHT22;43401;43.788;-0.712;2022-08-19T01:54:24;19.50;99.90
57566;DHT22;43401;43.788;-0.712;2022-08-19T01:56:51;19.60;99.90
57566;DHT22;43401;43.788;-0.712;2022-08-19T01:59:17;19.50;99.90
57566;DHT22;43401;43.788;-0.712;2022-08-19T02:01:44;19.40;99.90
57566;DHT22;43401;43.788;-0.712;2022-08-19T02:04:09;19.50;99.90
57566;DHT22;43401;43.788;-0.712;2022-08-19T02:06:35;19.50;99.90
57566;DHT22;43401;43.788;-0.712;2022-08-19T02:09:00;19.50;99.90
57566;DHT22;43401;43.788;-0.712;2022-08-19T02:11:30;19.40;99.90
57566;DHT22;43401;43.788;-0.712;2022-08-19T02:14:03;19.40;99.90
57566;DHT22;43401;43.788;-0.712;2022-08-19T02:16:29;19.30;99.90
57566;DHT22;43401;43.788;-0.712;2022-08-19T02:18:55;19.30;99.90
57566;DHT22;43401;43.788;-0.712;2022-08-19T02:21:22;19.20;99.90
57566;DHT22;43401;43.788;-0.712;2022-08-19T02:23:48;19.20;99.90
57566;DHT22;43401;43.788;-0.712;2022-08-19T02:26:14;19.10;99.90
57566;DHT22;43401;43.788;-0.712;2022-08-19T02:28:41;19.10;99.90
57566;DHT22;43401;43.788;-0.712;2022-08-19T02:31:17;19.10;99.90
57566;DHT22;43401;43.788;-0.712;2022-08-19T02:33:44;19.10;99.90
57566;DHT22;43401;43.788;-0.712;2022-08-19T02:36:10;19.10;99.90
57566;DHT22;43401;43.788;-0.712;2022-08-19T02:38:36;19.10;99.90
57566;DHT22;43401;43.788;-0.712;2022-08-19T02:41:03;19.10;99.90
57566;DHT22;43401;43.788;-0.712;2022-08-19T02:43:30;19.00;99.90
57566;DHT22;43401;43.788;-0.712;2022-08-19T02:45:56;19.00;99.90
57566;DHT22;43401;43.788;-0.712;2022-08-19T02:48:22;19.00;99.90
57566;DHT22;43401;43.788;-0.712;2022-08-19T02:50:48;19.00;99.90
57566;DHT22;43401;43.788;-0.712;2022-08-19T02:53:18;19.00;99.90
57566;DHT22;43401;43.788;-0.712;2022-08-19T02:55:44;18.90;99.90
57566;DHT22;43401;43.788;-0.712;2022-08-19T02:58:11;18.80;99.90
57566;DHT22;43401;43.788;-0.712;2022-08-19T03:00:40;18.70;99.90
57566;DHT22;43401;43.788;-0.712;2022-08-19T03:03:07;18.80;99.90
57566;DHT22;43401;43.788;-0.712;2022-08-19T03:05:33;18.70;99.90
57566;DHT22;43401;43.788;-0.712;2022-08-19T03:07:59;18.70;99.90
57566;DHT22;43401;43.788;-0.712;2022-08-19T03:10:24;18.70;99.90
57566;DHT22;43401;43.788;-0.712;2022-08-19T03:12:50;18.70;99.90
57566;DHT22;43401;43.788;-0.712;2022-08-19T03:15:16;18.70;99.90
57566;DHT22;43401;43.788;-0.712;2022-08-19T03:17:41;18.70;99.90
57566;DHT22;43401;43.788;-0.712;2022-08-19T03:20:07;18.70;99.90
57566;DHT22;43401;43.788;-0.712;2022-08-19T03:22:33;18.70;99.90
57566;DHT22;43401;43.788;-0.712;2022-08-19T03:24:58;18.70;99.90
57566;DHT22;43401;43.788;-0.712;2022-08-19T03:27:24;18.60;99.90
57566;DHT22;43401;43.788;-0.712;2022-08-19T03:29:50;18.70;99.90
57566;DHT22;43401;43.788;-0.712;2022-08-19T03:32:16;18.60;99.90
57566;DHT22;43401;43.788;-0.712;2022-08-19T03:34:42;18.60;99.90
57566;DHT22;43401;43.788;-0.712;2022-08-19T03:37:10;18.50;99.90
57566;DHT22;43401;43.788;-0.712;2022-08-19T03:39:37;18.50;99.90
57566;DHT22;43401;43.788;-0.712;2022-08-19T03:42:03;18.50;99.90
57566;DHT22;43401;43.788;-0.712;2022-08-19T03:44:29;18.50;99.90
57566;DHT22;43401;43.788;-0.712;2022-08-19T03:46:56;18.50;99.90
57566;DHT22;43401;43.788;-0.712;2022-08-19T03:49:22;18.40;99.90
57566;DHT22;43401;43.788;-0.712;2022-08-19T03:51:49;18.40;99.90
57566;DHT22;43401;43.788;-0.712;2022-08-19T03:54:16;18.40;99.90
57566;DHT22;43401;43.788;-0.712;2022-08-19T03:56:43;18.40;99.90
57566;DHT22;43401;43.788;-0.712;2022-08-19T03:59:10;18.40;99.90
57566;DHT22;43401;43.788;-0.712;2022-08-19T04:01:36;18.50;99.90
57566;DHT22;43401;43.788;-0.712;2022-08-19T04:04:02;18.50;99.90
57566;DHT22;43401;43.788;-0.712;2022-08-19T04:06:29;18.50;99.90
57566;DHT22;43401;43.788;-0.712;2022-08-19T04:08:56;18.60;99.90
57566;DHT22;43401;43.788;-0.712;2022-08-19T04:11:24;18.60;99.90
57566;DHT22;43401;43.788;-0.712;2022-08-19T04:13:50;18.50;99.90
57566;DHT22;43401;43.788;-0.712;2022-08-19T04:16:18;18.50;99.90
57566;DHT22;43401;43.788;-0.712;2022-08-19T04:18:45;18.50;99.90
57566;DHT22;43401;43.788;-0.712;2022-08-19T04:21:15;18.50;99.90
57566;DHT22;43401;43.788;-0.712;2022-08-19T04:23:41;18.40;99.90
57566;DHT22;43401;43.788;-0.712;2022-08-19T04:26:07;18.60;99.90
57566;DHT22;43401;43.788;-0.712;2022-08-19T04:28:37;18.60;99.90
57566;DHT22;43401;43.788;-0.712;2022-08-19T04:31:02;18.50;99.90
57566;DHT22;43401;43.788;-0.712;2022-08-19T04:33:28;18.50;99.90
57566;DHT22;43401;43.788;-0.712;2022-08-19T04:35:53;18.50;99.90
57566;DHT22;43401;43.788;-0.712;2022-08-19T04:38:20;18.60;99.90
57566;DHT22;43401;43.788;-0.712;2022-08-19T04:40:48;18.60;99.90
57566;DHT22;43401;43.788;-0.712;2022-08-19T04:43:33;18.70;99.90
57566;DHT22;43401;43.788;-0.712;2022-08-19T04:46:04;18.70;99.90
57566;DHT22;43401;43.788;-0.712;2022-08-19T04:48:30;18.70;99.90
57566;DHT22;43401;43.788;-0.712;2022-08-19T04:50:56;18.70;99.90
57566;DHT22;43401;43.788;-0.712;2022-08-19T04:53:25;18.60;99.90
57566;DHT22;43401;43.788;-0.712;2022-08-19T04:55:52;18.60;99.90
57566;DHT22;43401;43.788;-0.712;2022-08-19T04:58:17;18.50;99.90
57566;DHT22;43401;43.788;-0.712;2022-08-19T05:00:43;18.60;99.90
57566;DHT22;43401;43.788;-0.712;2022-08-19T05:03:09;18.60;99.90
57566;DHT22;43401;43.788;-0.712;2022-08-19T05:05:39;18.60;99.90
57566;DHT22;43401;43.788;-0.712;2022-08-19T05:08:05;18.60;99.90
57566;DHT22;43401;43.788;-0.712;2022-08-19T05:10:34;18.60;99.90
57566;DHT22;43401;43.788;-0.712;2022-08-19T05:13:00;18.60;99.90
57566;DHT22;43401;43.788;-0.712;2022-08-19T05:15:26;18.70;99.90
57566;DHT22;43401;43.788;-0.712;2022-08-19T05:17:52;18.70;99.90
57566;DHT22;43401;43.788;-0.712;2022-08-19T05:20:37;18.60;99.90
57566;DHT22;43401;43.788;-0.712;2022-08-19T05:23:21;18.60;99.90
57566;DHT22;43401;43.788;-0.712;2022-08-19T05:25:47;18.60;99.90
57566;DHT22;43401;43.788;-0.712;2022-08-19T05:28:12;18.60;99.90
57566;DHT22;43401;43.788;-0.712;2022-08-19T05:30:38;18.60;99.90
57566;DHT22;43401;43.788;-0.712;2022-08-19T05:33:05;18.60;99.90
57566;DHT22;43401;43.788;-0.712;2022-08-19T05:35:31;18.60;99.90
57566;DHT22;43401;43.788;-0.712;2022-08-19T05:37:57;18.60;99.90
57566;DHT22;43401;43.788;-0.712;2022-08-19T05:40:22;18.70;99.90
57566;DHT22;43401;43.788;-0.712;2022-08-19T05:42:48;18.70;99.90
57566;DHT22;43401;43.788;-0.712;2022-08-19T05:45:14;18.60;99.90
57566;DHT22;43401;43.788;-0.712;2022-08-19T05:47:40;18.70;99.90
57566;DHT22;43401;43.788;-0.712;2022-08-19T05:50:06;18.80;99.90
57566;DHT22;43401;43.788;-0.712;2022-08-19T05:52:31;18.80;99.90
57566;DHT22;43401;43.788;-0.712;2022-08-19T05:54:57;18.90;99.90
57566;DHT22;43401;43.788;-0.712;2022-08-19T05:57:23;18.90;99.90
57566;DHT22;43401;43.788;-0.712;2022-08-19T05:59:49;18.90;99.90
57566;DHT22;43401;43.788;-0.712;2022-08-19T06:02:16;19.00;99.90
57566;DHT22;43401;43.788;-0.712;2022-08-19T06:04:42;19.00;99.90
57566;DHT22;43401;43.788;-0.712;2022-08-19T06:07:10;19.10;99.90
57566;DHT22;43401;43.788;-0.712;2022-08-19T06:09:36;19.10;99.90
57566;DHT22;43401;43.788;-0.712;2022-08-19T06:12:02;19.00;99.90
57566;DHT22;43401;43.788;-0.712;2022-08-19T06:14:30;19.10;99.90
57566;DHT22;43401;43.788;-0.712;2022-08-19T06:16:56;19.10;99.90
57566;DHT22;43401;43.788;-0.712;2022-08-19T06:19:24;19.10;99.90
57566;DHT22;43401;43.788;-0.712;2022-08-19T06:21:51;19.20;99.90
57566;DHT22;43401;43.788;-0.712;2022-08-19T06:24:21;19.10;99.90
57566;DHT22;43401;43.788;-0.712;2022-08-19T06:26:49;19.20;99.90
57566;DHT22;43401;43.788;-0.712;2022-08-19T06:29:16;19.30;99.90
57566;DHT22;43401;43.788;-0.712;2022-08-19T06:31:46;19.20;99.90
57566;DHT22;43401;43.788;-0.712;2022-08-19T06:34:14;19.30;99.90
57566;DHT22;43401;43.788;-0.712;2022-08-19T06:36:41;19.40;99.90
57566;DHT22;43401;43.788;-0.712;2022-08-19T06:39:09;19.40;99.90
57566;DHT22;43401;43.788;-0.712;2022-08-19T06:41:36;19.40;99.90
57566;DHT22;43401;43.788;-0.712;2022-08-19T06:44:02;19.50;99.90
57566;DHT22;43401;43.788;-0.712;2022-08-19T06:46:27;19.60;99.90
57566;DHT22;43401;43.788;-0.712;2022-08-19T06:48:54;19.50;99.90
57566;DHT22;43401;43.788;-0.712;2022-08-19T06:51:20;19.60;99.90
57566;DHT22;43401;43.788;-0.712;2022-08-19T06:53:47;19.60;99.90
57566;DHT22;43401;43.788;-0.712;2022-08-19T06:56:13;19.70;99.90
57566;DHT22;43401;43.788;-0.712;2022-08-19T06:58:40;19.80;99.90
57566;DHT22;43401;43.788;-0.712;2022-08-19T07:01:06;19.80;99.90
57566;DHT22;43401;43.788;-0.712;2022-08-19T07:03:33;19.80;99.90
57566;DHT22;43401;43.788;-0.712;2022-08-19T07:06:07;19.80;99.90
57566;DHT22;43401;43.788;-0.712;2022-08-19T07:08:34;19.90;99.90
57566;DHT22;43401;43.788;-0.712;2022-08-19T07:11:02;19.90;99.90
57566;DHT22;43401;43.788;-0.712;2022-08-19T07:13:30;19.70;99.90
57566;DHT22;43401;43.788;-0.712;2022-08-19T07:16:08;19.80;99.90
57566;DHT22;43401;43.788;-0.712;2022-08-19T07:18:34;19.90;99.90
57566;DHT22;43401;43.788;-0.712;2022-08-19T07:23:28;19.80;99.90
57566;DHT22;43401;43.788;-0.712;2022-08-19T07:25:54;19.90;99.90
57566;DHT22;43401;43.788;-0.712;2022-08-19T07:28:20;19.90;99.90
57566;DHT22;43401;43.788;-0.712;2022-08-19T07:30:45;20.00;99.90
57566;DHT22;43401;43.788;-0.712;2022-08-19T07:33:11;20.00;99.90
57566;DHT22;43401;43.788;-0.712;2022-08-19T07:35:37;20.00;99.90
57566;DHT22;43401;43.788;-0.712;2022-08-19T07:38:02;20.00;99.90
57566;DHT22;43401;43.788;-0.712;2022-08-19T07:40:28;20.00;99.90
57566;DHT22;43401;43.788;-0.712;2022-08-19T07:42:54;20.10;99.90
57566;DHT22;43401;43.788;-0.712;2022-08-19T07:45:20;20.10;99.90
57566;DHT22;43401;43.788;-0.712;2022-08-19T07:47:45;20.20;99.90
57566;DHT22;43401;43.788;-0.712;2022-08-19T07:50:11;20.20;99.90
57566;DHT22;43401;43.788;-0.712;2022-08-19T07:52:37;20.20;99.90
57566;DHT22;43401;43.788;-0.712;2022-08-19T07:55:05;20.10;99.90
57566;DHT22;43401;43.788;-0.712;2022-08-19T07:57:31;20.10;99.90
57566;DHT22;43401;43.788;-0.712;2022-08-19T07:59:56;20.20;99.90
57566;DHT22;43401;43.788;-0.712;2022-08-19T08:02:22;20.20;99.90
57566;DHT22;43401;43.788;-0.712;2022-08-19T08:04:47;20.10;99.90
57566;DHT22;43401;43.788;-0.712;2022-08-19T08:07:31;20.20;99.90
57566;DHT22;43401;43.788;-0.712;2022-08-19T08:10:15;20.20;99.90
57566;DHT22;43401;43.788;-0.712;2022-08-19T08:12:41;20.30;99.90
57566;DHT22;43401;43.788;-0.712;2022-08-19T08:15:08;20.30;99.90
57566;DHT22;43401;43.788;-0.712;2022-08-19T08:17:34;20.40;99.90
57566;DHT22;43401;43.788;-0.712;2022-08-19T08:20:03;20.50;99.90
57566;DHT22;43401;43.788;-0.712;2022-08-19T08:22:32;20.60;99.90
57566;DHT22;43401;43.788;-0.712;2022-08-19T08:25:18;20.60;99.90
57566;DHT22;43401;43.788;-0.712;2022-08-19T08:27:45;20.60;99.90
57566;DHT22;43401;43.788;-0.712;2022-08-19T08:30:13;20.70;99.90
57566;DHT22;43401;43.788;-0.712;2022-08-19T08:32:39;20.80;99.90
57566;DHT22;43401;43.788;-0.712;2022-08-19T08:35:07;20.80;99.90
57566;DHT22;43401;43.788;-0.712;2022-08-19T08:37:33;20.80;99.90
57566;DHT22;43401;43.788;-0.712;2022-08-19T08:40:02;20.90;99.90
57566;DHT22;43401;43.788;-0.712;2022-08-19T08:42:30;20.80;99.90
57566;DHT22;43401;43.788;-0.712;2022-08-19T08:44:59;20.90;99.90
57566;DHT22;43401;43.788;-0.712;2022-08-19T08:47:25;21.00;99.90
57566;DHT22;43401;43.788;-0.712;2022-08-19T08:50:03;21.00;99.90
57566;DHT22;43401;43.788;-0.712;2022-08-19T08:52:30;21.10;99.90
57566;DHT22;43401;43.788;-0.712;2022-08-19T08:55:03;21.20;99.90
57566;DHT22;43401;43.788;-0.712;2022-08-19T08:57:38;21.30;99.90
57566;DHT22;43401;43.788;-0.712;2022-08-19T09:00:06;21.40;99.90
57566;DHT22;43401;43.788;-0.712;2022-08-19T09:02:32;21.40;99.90
57566;DHT22;43401;43.788;-0.712;2022-08-19T09:04:57;21.40;99.90
57566;DHT22;43401;43.788;-0.712;2022-08-19T09:10:20;21.50;99.90
57566;DHT22;43401;43.788;-0.712;2022-08-19T09:13:03;21.50;99.90
57566;DHT22;43401;43.788;-0.712;2022-08-19T09:15:32;21.60;99.90
57566;DHT22;43401;43.788;-0.712;2022-08-19T09:17:59;21.60;99.90
57566;DHT22;43401;43.788;-0.712;2022-08-19T09:20:25;21.70;99.90
57566;DHT22;43401;43.788;-0.712;2022-08-19T09:22:50;21.60;99.90
57566;DHT22;43401;43.788;-0.712;2022-08-19T09:25:17;21.70;99.90
57566;DHT22;43401;43.788;-0.712;2022-08-19T09:27:44;21.70;99.90
57566;DHT22;43401;43.788;-0.712;2022-08-19T09:30:11;21.70;99.90
57566;DHT22;43401;43.788;-0.712;2022-08-19T09:32:37;21.80;99.90
57566;DHT22;43401;43.788;-0.712;2022-08-19T09:35:04;21.70;99.90
57566;DHT22;43401;43.788;-0.712;2022-08-19T09:37:34;21.80;99.90
57566;DHT22;43401;43.788;-0.712;2022-08-19T09:40:00;21.90;99.90
57566;DHT22;43401;43.788;-0.712;2022-08-19T09:42:26;21.90;99.90
57566;DHT22;43401;43.788;-0.712;2022-08-19T09:44:51;21.80;99.90
57566;DHT22;43401;43.788;-0.712;2022-08-19T09:47:17;21.80;99.90
57566;DHT22;43401;43.788;-0.712;2022-08-19T09:49:42;21.90;99.90
57566;DHT22;43401;43.788;-0.712;2022-08-19T09:52:09;22.10;99.90
57566;DHT22;43401;43.788;-0.712;2022-08-19T09:54:35;22.10;99.90
57566;DHT22;43401;43.788;-0.712;2022-08-19T09:57:01;22.10;99.90
57566;DHT22;43401;43.788;-0.712;2022-08-19T09:59:27;22.30;99.90
57566;DHT22;43401;43.788;-0.712;2022-08-19T10:01:53;22.40;99.90
57566;DHT22;43401;43.788;-0.712;2022-08-19T10:04:18;22.30;99.90
57566;DHT22;43401;43.788;-0.712;2022-08-19T10:06:46;22.30;99.90
57566;DHT22;43401;43.788;-0.712;2022-08-19T10:09:13;22.30;99.90
57566;DHT22;43401;43.788;-0.712;2022-08-19T10:11:39;22.10;99.90
57566;DHT22;43401;43.788;-0.712;2022-08-19T10:14:05;22.30;99.90
57566;DHT22;43401;43.788;-0.712;2022-08-19T10:16:32;22.40;99.90
57566;DHT22;43401;43.788;-0.712;2022-08-19T10:18:57;22.50;99.90
57566;DHT22;43401;43.788;-0.712;2022-08-19T10:21:27;22.50;99.90
57566;DHT22;43401;43.788;-0.712;2022-08-19T10:23:54;22.60;99.90
57566;DHT22;43401;43.788;-0.712;2022-08-19T10:26:23;22.30;99.90
57566;DHT22;43401;43.788;-0.712;2022-08-19T10:28:49;22.30;99.90
57566;DHT22;43401;43.788;-0.712;2022-08-19T10:31:16;22.60;99.90
57566;DHT22;43401;43.788;-0.712;2022-08-19T10:33:43;22.70;99.90
57566;DHT22;43401;43.788;-0.712;2022-08-19T10:36:10;22.70;99.90
57566;DHT22;43401;43.788;-0.712;2022-08-19T10:38:36;22.70;99.90
57566;DHT22;43401;43.788;-0.712;2022-08-19T10:41:10;22.80;99.90
57566;DHT22;43401;43.788;-0.712;2022-08-19T10:43:36;22.80;99.90
57566;DHT22;43401;43.788;-0.712;2022-08-19T10:46:04;23.10;99.90
57566;DHT22;43401;43.788;-0.712;2022-08-19T10:48:31;23.10;99.90
57566;DHT22;43401;43.788;-0.712;2022-08-19T10:50:57;23.30;99.90
57566;DHT22;43401;43.788;-0.712;2022-08-19T10:53:41;23.40;99.90
57566;DHT22;43401;43.788;-0.712;2022-08-19T10:56:11;23.20;99.90
57566;DHT22;43401;43.788;-0.712;2022-08-19T10:58:56;23.40;99.90
57566;DHT22;43401;43.788;-0.712;2022-08-19T11:01:23;23.30;99.90
57566;DHT22;43401;43.788;-0.712;2022-08-19T11:03:49;23.30;99.90
57566;DHT22;43401;43.788;-0.712;2022-08-19T11:06:15;23.30;99.90
57566;DHT22;43401;43.788;-0.712;2022-08-19T11:08:41;23.30;99.90
57566;DHT22;43401;43.788;-0.712;2022-08-19T11:11:10;23.30;99.90
57566;DHT22;43401;43.788;-0.712;2022-08-19T11:13:37;23.10;99.90
57566;DHT22;43401;43.788;-0.712;2022-08-19T11:16:06;23.20;99.90
57566;DHT22;43401;43.788;-0.712;2022-08-19T11:18:33;23.40;99.90
57566;DHT22;43401;43.788;-0.712;2022-08-19T11:21:07;23.50;99.90
57566;DHT22;43401;43.788;-0.712;2022-08-19T11:23:32;23.40;99.90
57566;DHT22;43401;43.788;-0.712;2022-08-19T11:25:58;23.60;99.90
57566;DHT22;43401;43.788;-0.712;2022-08-19T11:28:24;23.70;99.90
57566;DHT22;43401;43.788;-0.712;2022-08-19T11:30:50;23.80;99.90
57566;DHT22;43401;43.788;-0.712;2022-08-19T11:33:16;23.70;99.90
57566;DHT22;43401;43.788;-0.712;2022-08-19T11:35:41;23.80;99.90
57566;DHT22;43401;43.788;-0.712;2022-08-19T11:38:07;23.90;99.90
57566;DHT22;43401;43.788;-0.712;2022-08-19T11:40:32;23.80;99.90
57566;DHT22;43401;43.788;-0.712;2022-08-19T11:42:58;23.80;99.90
57566;DHT22;43401;43.788;-0.712;2022-08-19T11:45:24;24.00;99.90
57566;DHT22;43401;43.788;-0.712;2022-08-19T11:47:50;23.80;99.90
57566;DHT22;43401;43.788;-0.712;2022-08-19T11:50:16;23.90;99.90
57566;DHT22;43401;43.788;-0.712;2022-08-19T11:52:41;24.20;99.90
57566;DHT22;43401;43.788;-0.712;2022-08-19T11:55:08;24.10;99.90
57566;DHT22;43401;43.788;-0.712;2022-08-19T11:57:33;24.30;99.90
57566;DHT22;43401;43.788;-0.712;2022-08-19T11:59:59;24.40;99.90
57566;DHT22;43401;43.788;-0.712;2022-08-19T12:02:24;24.40;99.90
57566;DHT22;43401;43.788;-0.712;2022-08-19T12:04:50;24.50;99.90
57566;DHT22;43401;43.788;-0.712;2022-08-19T12:07:16;24.60;99.90
57566;DHT22;43401;43.788;-0.712;2022-08-19T12:09:41;24.40;99.90
57566;DHT22;43401;43.788;-0.712;2022-08-19T12:12:08;25.10;99.90
57566;DHT22;43401;43.788;-0.712;2022-08-19T12:14:34;24.80;99.90
57566;DHT22;43401;43.788;-0.712;2022-08-19T12:16:59;24.90;99.90
57566;DHT22;43401;43.788;-0.712;2022-08-19T12:19:25;24.90;99.90
57566;DHT22;43401;43.788;-0.712;2022-08-19T12:21:51;24.90;99.90
57566;DHT22;43401;43.788;-0.712;2022-08-19T12:24:18;24.90;99.90
57566;DHT22;43401;43.788;-0.712;2022-08-19T12:26:48;24.80;99.90
57566;DHT22;43401;43.788;-0.712;2022-08-19T12:29:14;24.80;99.90
57566;DHT22;43401;43.788;-0.712;2022-08-19T12:31:40;24.70;99.90
57566;DHT22;43401;43.788;-0.712;2022-08-19T12:34:05;24.70;99.90
57566;DHT22;43401;43.788;-0.712;2022-08-19T12:36:31;24.60;99.90
57566;DHT22;43401;43.788;-0.712;2022-08-19T12:38:59;24.90;99.90
57566;DHT22;43401;43.788;-0.712;2022-08-19T12:41:25;24.90;99.90
57566;DHT22;43401;43.788;-0.712;2022-08-19T12:43:51;25.00;99.90
57566;DHT22;43401;43.788;-0.712;2022-08-19T12:46:17;25.00;99.90
57566;DHT22;43401;43.788;-0.712;2022-08-19T12:48:43;24.80;99.90
57566;DHT22;43401;43.788;-0.712;2022-08-19T12:51:11;25.00;99.90
57566;DHT22;43401;43.788;-0.712;2022-08-19T12:53:37;25.00;99.90
57566;DHT22;43401;43.788;-0.712;2022-08-19T12:56:03;25.00;99.90
57566;DHT22;43401;43.788;-0.712;2022-08-19T12:58:30;25.10;99.90
57566;DHT22;43401;43.788;-0.712;2022-08-19T13:00:55;25.20;99.90
57566;DHT22;43401;43.788;-0.712;2022-08-19T13:03:21;25.10;99.90
57566;DHT22;43401;43.788;-0.712;2022-08-19T13:05:54;25.30;99.90
57566;DHT22;43401;43.788;-0.712;2022-08-19T13:08:20;25.20;99.90
57566;DHT22;43401;43.788;-0.712;2022-08-19T13:10:46;25.20;99.90
57566;DHT22;43401;43.788;-0.712;2022-08-19T13:13:12;25.30;99.90
57566;DHT22;43401;43.788;-0.712;2022-08-19T13:15:38;25.40;99.90
57566;DHT22;43401;43.788;-0.712;2022-08-19T13:18:05;25.40;99.90
57566;DHT22;43401;43.788;-0.712;2022-08-19T13:20:31;25.30;99.90
57566;DHT22;43401;43.788;-0.712;2022-08-19T13:22:56;25.60;99.90
57566;DHT22;43401;43.788;-0.712;2022-08-19T13:25:22;25.70;99.90
57566;DHT22;43401;43.788;-0.712;2022-08-19T13:27:48;25.70;99.90
57566;DHT22;43401;43.788;-0.712;2022-08-19T13:30:15;25.40;99.90
57566;DHT22;43401;43.788;-0.712;2022-08-19T13:32:59;25.40;99.90
57566;DHT22;43401;43.788;-0.712;2022-08-19T13:36:19;25.70;99.90
57566;DHT22;43401;43.788;-0.712;2022-08-19T13:38:26;25.80;99.90
57566;DHT22;43401;43.788;-0.712;2022-08-19T13:40:52;25.90;99.90
57566;DHT22;43401;43.788;-0.712;2022-08-19T13:43:22;26.10;99.90
57566;DHT22;43401;43.788;-0.712;2022-08-19T13:45:49;25.90;99.90
57566;DHT22;43401;43.788;-0.712;2022-08-19T13:48:15;25.90;99.90
57566;DHT22;43401;43.788;-0.712;2022-08-19T13:50:42;26.20;99.90
57566;DHT22;43401;43.788;-0.712;2022-08-19T13:53:09;26.10;99.90
57566;DHT22;43401;43.788;-0.712;2022-08-19T13:55:35;26.30;99.90
57566;DHT22;43401;43.788;-0.712;2022-08-19T13:58:01;26.10;99.90
57566;DHT22;43401;43.788;-0.712;2022-08-19T14:00:31;26.20;99.90
57566;DHT22;43401;43.788;-0.712;2022-08-19T14:02:57;26.20;99.90
57566;DHT22;43401;43.788;-0.712;2022-08-19T14:05:23;26.20;99.90
57566;DHT22;43401;43.788;-0.712;2022-08-19T14:07:49;26.30;99.90
57566;DHT22;43401;43.788;-0.712;2022-08-19T14:10:15;26.30;99.90
57566;DHT22;43401;43.788;-0.712;2022-08-19T14:12:41;26.10;99.90
57566;DHT22;43401;43.788;-0.712;2022-08-19T14:15:07;26.20;99.90
57566;DHT22;43401;43.788;-0.712;2022-08-19T14:17:33;26.50;99.90
57566;DHT22;43401;43.788;-0.712;2022-08-19T14:20:03;26.20;99.90
57566;DHT22;43401;43.788;-0.712;2022-08-19T14:22:33;26.20;99.90
57566;DHT22;43401;43.788;-0.712;2022-08-19T14:24:59;26.40;99.90
57566;DHT22;43401;43.788;-0.712;2022-08-19T14:27:24;26.20;99.90
57566;DHT22;43401;43.788;-0.712;2022-08-19T14:29:51;26.40;99.90
57566;DHT22;43401;43.788;-0.712;2022-08-19T14:32:17;26.30;99.90
57566;DHT22;43401;43.788;-0.712;2022-08-19T14:34:42;26.20;99.90
57566;DHT22;43401;43.788;-0.712;2022-08-19T14:37:11;26.50;99.90
57566;DHT22;43401;43.788;-0.712;2022-08-19T14:39:39;26.40;99.90
57566;DHT22;43401;43.788;-0.712;2022-08-19T14:42:08;26.50;99.90
57566;DHT22;43401;43.788;-0.712;2022-08-19T14:44:34;26.30;99.90
57566;DHT22;43401;43.788;-0.712;2022-08-19T14:47:00;26.50;99.90
57566;DHT22;43401;43.788;-0.712;2022-08-19T14:49:25;26.50;99.90
57566;DHT22;43401;43.788;-0.712;2022-08-19T14:51:51;26.50;99.90
57566;DHT22;43401;43.788;-0.712;2022-08-19T14:54:17;26.40;99.90
57566;DHT22;43401;43.788;-0.712;2022-08-19T14:56:42;26.30;99.90
57566;DHT22;43401;43.788;-0.712;2022-08-19T14:59:08;26.40;99.90
57566;DHT22;43401;43.788;-0.712;2022-08-19T15:01:34;26.30;99.90
57566;DHT22;43401;43.788;-0.712;2022-08-19T15:04:00;26.50;99.90
57566;DHT22;43401;43.788;-0.712;2022-08-19T15:06:26;26.50;99.90
57566;DHT22;43401;43.788;-0.712;2022-08-19T15:08:52;26.70;99.90
57566;DHT22;43401;43.788;-0.712;2022-08-19T15:11:19;26.60;99.90
57566;DHT22;43401;43.788;-0.712;2022-08-19T15:13:46;26.40;99.90
57566;DHT22;43401;43.788;-0.712;2022-08-19T15:16:12;26.60;99.90
57566;DHT22;43401;43.788;-0.712;2022-08-19T15:18:40;26.60;99.90
57566;DHT22;43401;43.788;-0.712;2022-08-19T15:21:07;26.50;99.90
57566;DHT22;43401;43.788;-0.712;2022-08-19T15:23:34;26.60;99.90